Mt Bomar Mars — 9HCM9 — position and weather

sailwx.info

Track history (hours):
 
Tides and Currents Weather Stations Pressure Air Temp Water Temp Dewpoint Dewpoint Depression Visibility Wind Speed Wind Dir Waves Ship Positions

Mt Bomar Mars

Last reported at 2018-May-20 18:21 UTC. Time now 2018-May-20 22:49 UTC.
Position N 43°22' E 004°56'.

Length 107 m; draft 5.2 m.

Type: Ship (hazmat cat B). MMSI: 256784000.

Date/timePositionNaut miles runAvg speedWind from/ knotsBaromVisibWave heightAir tempDewpointWater temp
2018-May-20 18:21N 43°22' E 004°56'0 0.0
2018-May-20 17:54N 43°22' E 004°56'0 0.0
2018-May-20 16:21N 43°22' E 004°56'0 0.0
2018-May-20 04:03N 43°22' E 004°56'0 0.0
2018-May-20 03:33N 43°22' E 004°56'0 0.0
2018-May-19 21:15N 43°22' E 004°56'0 0.0
2018-May-19 11:33N 43°22' E 004°56'0 0.0
2018-May-19 11:06N 43°22' E 004°56'0 0.1
2018-May-19 10:45N 43°22' E 004°56'0 0.0
2018-May-19 10:15N 43°22' E 004°56'0 0.0
2018-May-19 09:57N 43°22' E 004°56'0 0.0
2018-May-19 08:30N 43°22' E 004°56'0 0.0
2018-May-19 03:36N 43°22' E 004°56'0 0.0
2018-May-19 02:33N 43°22' E 004°56'0 0.1
2018-May-19 02:27N 43°22' E 004°56'0 0.0
2018-May-19 02:00N 43°22' E 004°56'0 0.0
2018-May-19 01:21N 43°22' E 004°56'0 0.0
2018-May-19 00:57N 43°22' E 004°56'0 0.0
2018-May-19 00:30N 43°22' E 004°56'0 0.0
2018-May-19 00:00N 43°22' E 004°56'0 0.0
2018-May-18 23:24N 43°22' E 004°56'0 0.0
2018-May-18 20:51N 43°22' E 004°56'0 0.0
2018-May-18 20:27N 43°22' E 004°56'0 0.0
2018-May-18 18:54N 43°22' E 004°56'0 0.0
2018-May-18 17:33N 43°22' E 004°56'0 0.0
2018-May-18 17:18N 43°22' E 004°56'0 0.0
2018-May-18 16:27N 43°22' E 004°56'1 1.8
2018-May-18 16:00N 43°23' E 004°56'3 0.1
2018-May-16 13:54N 43°25' E 004°53'1 2.5
2018-May-16 13:30N 43°24' E 004°54'5 9.1
2018-May-16 13:00N 43°21' E 004°59'3 5.7
2018-May-16 12:30N 43°18' E 004°60'3 5.2
2018-May-16 12:00N 43°16' E 005°01'  
2018-May-13 10:43N 41°10' E 002°16'210.1
2018-May-13 10:29N 41°12' E 002°14'5 9.5
2018-May-13 10:00N 41°16' E 002°11'5 8.6
2018-May-13 09:27N 41°21' E 002°10'1 0.1
2018-May-12 19:14N 41°20' E 002°09'1 2.4
2018-May-12 19:01N 41°21' E 002°10'4 7.7
2018-May-12 18:30N 41°17' E 002°11'5 9.5
2018-May-12 18:00N 41°17' E 002°18'0 0.4
2018-May-12 17:31N 41°17' E 002°17'0 0.7
2018-May-12 17:00N 41°17' E 002°17'0 0.8
2018-May-12 16:30N 41°16' E 002°17'0 0.5
2018-May-12 16:00N 41°16' E 002°16'31812.0
2018-May-11 13:27N 43°52' E 008°33'1112.0
2018-May-11 12:30N 44°03' E 008°34'4 8.8
2018-May-11 12:00N 44°07' E 008°34'5 9.3
2018-May-11 11:30N 44°12' E 008°34'5 9.9
2018-May-11 11:01N 44°17' E 008°33'  
Track history (hours):
 
Tides and Currents Weather Stations Pressure Air Temp Water Temp Dewpoint Dewpoint Depression Visibility Wind Speed Wind Dir Waves Ship Positions

Mt Bomar Mars

Last reported at 2018-May-20 18:21 UTC. Time now 2018-May-20 22:49 UTC.
Position N 43°22' E 004°56'.

Length 107 m; draft 5.2 m.

Type: Ship (hazmat cat B). MMSI: 256784000.

Date/timePositionNaut miles runAvg speedWind from/ knotsBaromVisibWave heightAir tempDewpointWater temp
2018-May-20 18:21N 43°22' E 004°56'0 0.0
2018-May-20 17:54N 43°22' E 004°56'0 0.0
2018-May-20 16:21N 43°22' E 004°56'0 0.0
2018-May-20 04:03N 43°22' E 004°56'0 0.0
2018-May-20 03:33N 43°22' E 004°56'0 0.0
2018-May-19 21:15N 43°22' E 004°56'0 0.0
2018-May-19 11:33N 43°22' E 004°56'0 0.0
2018-May-19 11:06N 43°22' E 004°56'0 0.1
2018-May-19 10:45N 43°22' E 004°56'0 0.0
2018-May-19 10:15N 43°22' E 004°56'0 0.0
2018-May-19 09:57N 43°22' E 004°56'0 0.0
2018-May-19 08:30N 43°22' E 004°56'0 0.0
2018-May-19 03:36N 43°22' E 004°56'0 0.0
2018-May-19 02:33N 43°22' E 004°56'0 0.1
2018-May-19 02:27N 43°22' E 004°56'0 0.0
2018-May-19 02:00N 43°22' E 004°56'0 0.0
2018-May-19 01:21N 43°22' E 004°56'0 0.0
2018-May-19 00:57N 43°22' E 004°56'0 0.0
2018-May-19 00:30N 43°22' E 004°56'0 0.0
2018-May-19 00:00N 43°22' E 004°56'0 0.0
2018-May-18 23:24N 43°22' E 004°56'0 0.0
2018-May-18 20:51N 43°22' E 004°56'0 0.0
2018-May-18 20:27N 43°22' E 004°56'0 0.0
2018-May-18 18:54N 43°22' E 004°56'0 0.0
2018-May-18 17:33N 43°22' E 004°56'0 0.0
2018-May-18 17:18N 43°22' E 004°56'0 0.0
2018-May-18 16:27N 43°22' E 004°56'1 1.8
2018-May-18 16:00N 43°23' E 004°56'3 0.1
2018-May-16 13:54N 43°25' E 004°53'1 2.5
2018-May-16 13:30N 43°24' E 004°54'5 9.1
2018-May-16 13:00N 43°21' E 004°59'3 5.7
2018-May-16 12:30N 43°18' E 004°60'3 5.2
2018-May-16 12:00N 43°16' E 005°01'  
2018-May-13 10:43N 41°10' E 002°16'210.1
2018-May-13 10:29N 41°12' E 002°14'5 9.5
2018-May-13 10:00N 41°16' E 002°11'5 8.6
2018-May-13 09:27N 41°21' E 002°10'1 0.1
2018-May-12 19:14N 41°20' E 002°09'1 2.4
2018-May-12 19:01N 41°21' E 002°10'4 7.7
2018-May-12 18:30N 41°17' E 002°11'5 9.5
2018-May-12 18:00N 41°17' E 002°18'0 0.4
2018-May-12 17:31N 41°17' E 002°17'0 0.7
2018-May-12 17:00N 41°17' E 002°17'0 0.8
2018-May-12 16:30N 41°16' E 002°17'0 0.5
2018-May-12 16:00N 41°16' E 002°16'31812.0
2018-May-11 13:27N 43°52' E 008°33'1112.0
2018-May-11 12:30N 44°03' E 008°34'4 8.8
2018-May-11 12:00N 44°07' E 008°34'5 9.3
2018-May-11 11:30N 44°12' E 008°34'5 9.9
2018-May-11 11:01N 44°17' E 008°33'  

Dump ship's entire track history